DWI6250 MDSD-TTPP
Flight info
| Callsign | DWI6250 |
|---|---|
| Flight time | 1h 45m |
| Altitude | 37000 |
| Route | MELLA2J MELLA DCT DAKES DCT ANADA UG449 POS |
| Aircraft | B38M/M-SDE1FGHILORVWXY/HB1 |
Departure
| Time | 2026-05-08 21:14 |
|---|---|
| Airport | Las Américas International Airport (MDSD) |
Arrival
| Time | 2026-05-08 22:59 |
|---|---|
| Airport | Piarco International Airport (TTPP) |
| Time | Latitude | Longitude | Altitude | Speed | Heading |
|---|---|---|---|---|---|
| 2026-05-08 20:49 | 18.43721 | -69.67717 | 71 ft | 0 kts | 249° |
| 2026-05-08 21:03 | 18.43722 | -69.67715 | 90 ft | 2 kts | 249° |
| 2026-05-08 21:03 | 18.43728 | -69.67699 | 63 ft | 2 kts | 250° |
| 2026-05-08 21:03 | 18.43733 | -69.67683 | 65 ft | 2 kts | 251° |
| 2026-05-08 21:04 | 18.43738 | -69.67666 | 69 ft | 2 kts | 263° |
| 2026-05-08 21:04 | 18.43736 | -69.67649 | 69 ft | 2 kts | 301° |
| 2026-05-08 21:04 | 18.43723 | -69.67638 | 66 ft | 2 kts | 339° |
| 2026-05-08 21:04 | 18.43713 | -69.67634 | 66 ft | 0 kts | 340° |
| 2026-05-08 21:09 | 18.43714 | -69.67634 | 71 ft | 1 kts | 340° |
| 2026-05-08 21:09 | 18.43735 | -69.67642 | 71 ft | 6 kts | 340° |
| 2026-05-08 21:09 | 18.43789 | -69.67665 | 71 ft | 10 kts | 338° |
| 2026-05-08 21:10 | 18.43856 | -69.67693 | 65 ft | 12 kts | 340° |
| 2026-05-08 21:10 | 18.43938 | -69.67725 | 69 ft | 13 kts | 339° |
| 2026-05-08 21:10 | 18.44032 | -69.67762 | 69 ft | 15 kts | 339° |
| 2026-05-08 21:10 | 18.44102 | -69.67786 | 71 ft | 9 kts | 3° |
| 2026-05-08 21:11 | 18.44142 | -69.67736 | 63 ft | 10 kts | 69° |
| 2026-05-08 21:11 | 18.44166 | -69.67667 | 68 ft | 8 kts | 69° |
| 2026-05-08 21:11 | 18.44189 | -69.67603 | 69 ft | 10 kts | 69° |
| 2026-05-08 21:11 | 18.44245 | -69.67548 | 71 ft | 10 kts | 26° |
| 2026-05-08 21:12 | 18.44305 | -69.67516 | 66 ft | 10 kts | 27° |
| 2026-05-08 21:12 | 18.44359 | -69.67474 | 69 ft | 9 kts | 61° |
| 2026-05-08 21:12 | 18.44378 | -69.67429 | 70 ft | 4 kts | 73° |
| 2026-05-08 21:12 | 18.44362 | -69.67403 | 67 ft | 5 kts | 144° |
| 2026-05-08 21:13 | 18.44286 | -69.67375 | 67 ft | 30 kts | 160° |
| 2026-05-08 21:13 | 18.43890 | -69.67231 | 65 ft | 91 kts | 161° |
| 2026-05-08 21:13 | 18.43120 | -69.66946 | 70 ft | 141 kts | 161° |
| 2026-05-08 21:13 | 18.42075 | -69.66537 | 197 ft | 169 kts | 158° |
| 2026-05-08 21:14 | 18.40945 | -69.66095 | 702 ft | 179 kts | 159° |
| 2026-05-08 21:14 | 18.39777 | -69.65639 | 1351 ft | 180 kts | 158° |
| 2026-05-08 21:14 | 18.38559 | -69.65205 | 1912 ft | 195 kts | 160° |
| 2026-05-08 21:14 | 18.37289 | -69.64543 | 2335 ft | 218 kts | 135° |
| 2026-05-08 21:15 | 18.36448 | -69.63149 | 2867 ft | 235 kts | 107° |
| 2026-05-08 21:15 | 18.35989 | -69.61441 | 3484 ft | 253 kts | 104° |
| 2026-05-08 21:15 | 18.35494 | -69.59610 | 4254 ft | 262 kts | 104° |
| 2026-05-08 21:15 | 18.34997 | -69.57751 | 5196 ft | 267 kts | 103° |
| 2026-05-08 21:16 | 18.34499 | -69.55868 | 6073 ft | 272 kts | 103° |
| 2026-05-08 21:16 | 18.33988 | -69.53934 | 6950 ft | 275 kts | 103° |
| 2026-05-08 21:16 | 18.33471 | -69.51974 | 7808 ft | 280 kts | 103° |
| 2026-05-08 21:16 | 18.32943 | -69.49976 | 8657 ft | 284 kts | 103° |
| 2026-05-08 21:17 | 18.32416 | -69.47977 | 9490 ft | 288 kts | 103° |
| 2026-05-08 21:17 | 18.31875 | -69.45925 | 10284 ft | 293 kts | 103° |
| 2026-05-08 21:17 | 18.31314 | -69.43799 | 10719 ft | 311 kts | 104° |
| 2026-05-08 21:17 | 18.30778 | -69.41571 | 11211 ft | 322 kts | 96° |
| 2026-05-08 21:18 | 18.30597 | -69.39221 | 11989 ft | 323 kts | 92° |
| 2026-05-08 21:18 | 18.30430 | -69.36836 | 12720 ft | 328 kts | 92° |
| 2026-05-08 21:18 | 18.30259 | -69.34451 | 13477 ft | 331 kts | 92° |
| 2026-05-08 21:18 | 18.30081 | -69.31993 | 14177 ft | 335 kts | 92° |
| 2026-05-08 21:19 | 18.29904 | -69.29561 | 14831 ft | 339 kts | 92° |
| 2026-05-08 21:19 | 18.29722 | -69.27072 | 15514 ft | 342 kts | 92° |
| 2026-05-08 21:19 | 18.29538 | -69.24556 | 16146 ft | 346 kts | 92° |
| 2026-05-08 21:19 | 18.29351 | -69.22012 | 16791 ft | 349 kts | 92° |
| 2026-05-08 21:20 | 18.29163 | -69.19453 | 17421 ft | 352 kts | 92° |
| 2026-05-08 21:20 | 18.28974 | -69.16891 | 18029 ft | 356 kts | 92° |
| 2026-05-08 21:20 | 18.28782 | -69.14284 | 18584 ft | 359 kts | 92° |
| 2026-05-08 21:20 | 18.28586 | -69.11644 | 19082 ft | 363 kts | 92° |
| 2026-05-08 21:21 | 18.28392 | -69.09016 | 19565 ft | 366 kts | 92° |
| 2026-05-08 21:21 | 18.28193 | -69.06335 | 20059 ft | 369 kts | 92° |
| 2026-05-08 21:21 | 18.27991 | -69.03624 | 20540 ft | 373 kts | 92° |
| 2026-05-08 21:21 | 18.27788 | -69.00888 | 21011 ft | 376 kts | 92° |
| 2026-05-08 21:22 | 18.27583 | -68.98150 | 21474 ft | 380 kts | 92° |
| 2026-05-08 21:22 | 18.27374 | -68.95350 | 21933 ft | 383 kts | 93° |
| 2026-05-08 21:22 | 18.27166 | -68.92570 | 22372 ft | 387 kts | 92° |
| 2026-05-08 21:22 | 18.26954 | -68.89740 | 22821 ft | 390 kts | 93° |
| 2026-05-08 21:23 | 18.26738 | -68.86878 | 23263 ft | 394 kts | 93° |
| 2026-05-08 21:23 | 18.26520 | -68.83979 | 23660 ft | 398 kts | 93° |
| 2026-05-08 21:23 | 18.26303 | -68.81096 | 24022 ft | 400 kts | 93° |
| 2026-05-08 21:23 | 18.26081 | -68.78170 | 24424 ft | 402 kts | 93° |
| 2026-05-08 21:24 | 18.25858 | -68.75225 | 24812 ft | 404 kts | 93° |
| 2026-05-08 21:24 | 18.25632 | -68.72259 | 25199 ft | 406 kts | 93° |
| 2026-05-08 21:24 | 18.25409 | -68.69323 | 25578 ft | 408 kts | 93° |
| 2026-05-08 21:24 | 18.25181 | -68.66329 | 25958 ft | 411 kts | 93° |
| 2026-05-08 21:25 | 18.24951 | -68.63326 | 26327 ft | 413 kts | 93° |
| 2026-05-08 21:25 | 18.24719 | -68.60295 | 26699 ft | 415 kts | 93° |
| 2026-05-08 21:25 | 18.24486 | -68.57257 | 27068 ft | 418 kts | 93° |
| 2026-05-08 21:25 | 18.24262 | -68.54343 | 27411 ft | 420 kts | 93° |
| 2026-05-08 21:26 | 18.24026 | -68.51281 | 27766 ft | 422 kts | 92° |
| 2026-05-08 21:26 | 18.23786 | -68.48178 | 28128 ft | 424 kts | 92° |
| 2026-05-08 21:26 | 18.23546 | -68.45074 | 28476 ft | 426 kts | 92° |
| 2026-05-08 21:26 | 18.23305 | -68.41964 | 28810 ft | 428 kts | 92° |
| 2026-05-08 21:27 | 18.23064 | -68.38862 | 29151 ft | 430 kts | 92° |
| 2026-05-08 21:27 | 18.22818 | -68.35712 | 29478 ft | 433 kts | 92° |
| 2026-05-08 21:27 | 18.22571 | -68.32537 | 29802 ft | 435 kts | 92° |
| 2026-05-08 21:27 | 18.22324 | -68.29386 | 30108 ft | 437 kts | 92° |
| 2026-05-08 21:28 | 18.22073 | -68.26189 | 30383 ft | 439 kts | 92° |
| 2026-05-08 21:28 | 18.21820 | -68.22975 | 30660 ft | 441 kts | 92° |
| 2026-05-08 21:28 | 18.21566 | -68.19742 | 30914 ft | 443 kts | 92° |
| 2026-05-08 21:28 | 18.21310 | -68.16498 | 31176 ft | 445 kts | 92° |
| 2026-05-08 21:29 | 18.21056 | -68.13278 | 31427 ft | 447 kts | 92° |
| 2026-05-08 21:29 | 18.20796 | -68.09998 | 31684 ft | 449 kts | 92° |
| 2026-05-08 21:29 | 18.20539 | -68.06748 | 31930 ft | 452 kts | 92° |
| 2026-05-08 21:29 | 18.20082 | -68.03470 | 32172 ft | 456 kts | 103° |
| 2026-05-08 21:30 | 18.18874 | -68.00361 | 32457 ft | 461 kts | 118° |
| 2026-05-08 21:30 | 18.16938 | -67.97651 | 32692 ft | 467 kts | 133° |
| 2026-05-08 21:30 | 18.14518 | -67.95353 | 32942 ft | 470 kts | 137° |
| 2026-05-08 21:30 | 18.12064 | -67.93122 | 33140 ft | 472 kts | 138° |
| 2026-05-08 21:31 | 18.09551 | -67.90879 | 33402 ft | 474 kts | 138° |
| 2026-05-08 21:31 | 18.07012 | -67.88640 | 33647 ft | 476 kts | 139° |
| 2026-05-08 21:31 | 18.04489 | -67.86430 | 33905 ft | 477 kts | 139° |
| 2026-05-08 21:31 | 18.01933 | -67.84195 | 34196 ft | 477 kts | 139° |
| 2026-05-08 21:32 | 17.99379 | -67.81965 | 34477 ft | 476 kts | 139° |
| 2026-05-08 21:32 | 17.96833 | -67.79742 | 34773 ft | 475 kts | 139° |
| 2026-05-08 21:32 | 17.94287 | -67.77520 | 35053 ft | 475 kts | 139° |
| 2026-05-08 21:32 | 17.91773 | -67.75327 | 35326 ft | 474 kts | 139° |
| 2026-05-08 21:33 | 17.89225 | -67.73105 | 35585 ft | 474 kts | 139° |
| 2026-05-08 21:33 | 17.86682 | -67.70888 | 35839 ft | 474 kts | 139° |
| 2026-05-08 21:33 | 17.84165 | -67.68695 | 36087 ft | 473 kts | 139° |
| 2026-05-08 21:33 | 17.81630 | -67.66487 | 36329 ft | 473 kts | 138° |
| 2026-05-08 21:34 | 17.79094 | -67.64279 | 36563 ft | 473 kts | 138° |
| 2026-05-08 21:34 | 17.76565 | -67.62078 | 36785 ft | 473 kts | 138° |
| 2026-05-08 21:34 | 17.74026 | -67.59869 | 36973 ft | 473 kts | 138° |
| 2026-05-08 21:35 | 17.68980 | -67.55481 | 36968 ft | 470 kts | 138° |
| 2026-05-08 21:35 | 17.63962 | -67.51120 | 36975 ft | 471 kts | 138° |
| 2026-05-08 21:36 | 17.58913 | -67.46737 | 36976 ft | 471 kts | 138° |
| 2026-05-08 21:36 | 17.53860 | -67.42353 | 36978 ft | 471 kts | 138° |
| 2026-05-08 21:37 | 17.48831 | -67.37993 | 36974 ft | 471 kts | 138° |
| 2026-05-08 21:37 | 17.43795 | -67.33631 | 36974 ft | 471 kts | 138° |
| 2026-05-08 21:38 | 17.38747 | -67.29261 | 36976 ft | 471 kts | 138° |
| 2026-05-08 21:38 | 17.33674 | -67.24872 | 36974 ft | 471 kts | 138° |
| 2026-05-08 21:39 | 17.28635 | -67.20517 | 36975 ft | 471 kts | 138° |
| 2026-05-08 21:39 | 17.23612 | -67.16178 | 36975 ft | 471 kts | 138° |
| 2026-05-08 21:40 | 17.18541 | -67.11801 | 36975 ft | 470 kts | 138° |
| 2026-05-08 21:40 | 17.13522 | -67.07472 | 36971 ft | 470 kts | 138° |
| 2026-05-08 21:41 | 17.05960 | -67.00949 | 36971 ft | 470 kts | 136° |
| 2026-05-08 21:41 | 17.03757 | -66.98471 | 36966 ft | 463 kts | 123° |
| 2026-05-08 21:41 | 17.01855 | -66.95742 | 36974 ft | 465 kts | 124° |
| 2026-05-08 21:42 | 16.97994 | -66.90294 | 36978 ft | 465 kts | 124° |
| 2026-05-08 21:42 | 16.94178 | -66.84879 | 36972 ft | 465 kts | 124° |
| 2026-05-08 21:43 | 16.90333 | -66.79428 | 36975 ft | 465 kts | 124° |
| 2026-05-08 21:43 | 16.86506 | -66.74007 | 36975 ft | 465 kts | 124° |
| 2026-05-08 21:44 | 16.82672 | -66.68581 | 36975 ft | 465 kts | 124° |
| 2026-05-08 21:44 | 16.78828 | -66.63143 | 36972 ft | 465 kts | 123° |
| 2026-05-08 21:45 | 16.74984 | -66.57711 | 36974 ft | 465 kts | 124° |
| 2026-05-08 21:45 | 16.71132 | -66.52271 | 36972 ft | 465 kts | 123° |
| 2026-05-08 21:46 | 16.67290 | -66.46851 | 36973 ft | 465 kts | 123° |
| 2026-05-08 21:46 | 16.63446 | -66.41431 | 36974 ft | 465 kts | 123° |
| 2026-05-08 21:47 | 16.59588 | -66.35995 | 36973 ft | 465 kts | 123° |
| 2026-05-08 21:47 | 16.55734 | -66.30570 | 36972 ft | 465 kts | 123° |
| 2026-05-08 21:48 | 16.51899 | -66.25174 | 36976 ft | 466 kts | 123° |
| 2026-05-08 21:48 | 16.48029 | -66.19735 | 36972 ft | 466 kts | 123° |
| 2026-05-08 21:49 | 16.44187 | -66.14338 | 36971 ft | 466 kts | 123° |
| 2026-05-08 21:49 | 16.40319 | -66.08909 | 36971 ft | 466 kts | 123° |
| 2026-05-08 21:50 | 16.36460 | -66.03498 | 36970 ft | 466 kts | 123° |
| 2026-05-08 21:50 | 16.32612 | -65.98105 | 36975 ft | 466 kts | 123° |
| 2026-05-08 21:51 | 16.28736 | -65.92678 | 36975 ft | 466 kts | 123° |
| 2026-05-08 21:51 | 16.24890 | -65.87296 | 36971 ft | 466 kts | 123° |
| 2026-05-08 21:52 | 16.21025 | -65.81891 | 36973 ft | 466 kts | 123° |
| 2026-05-08 21:52 | 16.17167 | -65.76502 | 36970 ft | 466 kts | 123° |
| 2026-05-08 21:53 | 16.13275 | -65.71067 | 36969 ft | 466 kts | 123° |
| 2026-05-08 21:53 | 16.09426 | -65.65698 | 36973 ft | 466 kts | 123° |
| 2026-05-08 21:54 | 16.05543 | -65.60283 | 36969 ft | 466 kts | 123° |
| 2026-05-08 21:54 | 16.01683 | -65.54907 | 36971 ft | 466 kts | 123° |
| 2026-05-08 21:55 | 15.97789 | -65.49486 | 36971 ft | 466 kts | 123° |
| 2026-05-08 21:56 | 15.91991 | -65.41423 | 36968 ft | 466 kts | 123° |
| 2026-05-08 21:56 | 15.88100 | -65.36016 | 36968 ft | 466 kts | 123° |
| 2026-05-08 21:57 | 15.84234 | -65.30647 | 36967 ft | 466 kts | 123° |
| 2026-05-08 21:57 | 15.80344 | -65.25250 | 36966 ft | 466 kts | 123° |
| 2026-05-08 21:58 | 15.76468 | -65.19876 | 36965 ft | 466 kts | 123° |
| 2026-05-08 21:58 | 15.72567 | -65.14471 | 36966 ft | 466 kts | 123° |
| 2026-05-08 21:59 | 15.68705 | -65.09124 | 36967 ft | 466 kts | 123° |
| 2026-05-08 21:59 | 15.64828 | -65.03762 | 36962 ft | 465 kts | 123° |
| 2026-05-08 22:00 | 15.60931 | -64.98374 | 36964 ft | 465 kts | 123° |
| 2026-05-08 22:00 | 15.57070 | -64.93040 | 36968 ft | 465 kts | 123° |
| 2026-05-08 22:01 | 15.53176 | -64.87663 | 36969 ft | 465 kts | 123° |
| 2026-05-08 22:01 | 15.49309 | -64.82329 | 36967 ft | 464 kts | 123° |
| 2026-05-08 22:02 | 15.45413 | -64.76958 | 36961 ft | 464 kts | 123° |
| 2026-05-08 22:02 | 15.41536 | -64.71618 | 36956 ft | 464 kts | 123° |
| 2026-05-08 22:03 | 15.37670 | -64.66295 | 36969 ft | 464 kts | 123° |
| 2026-05-08 22:03 | 15.33778 | -64.60941 | 36970 ft | 463 kts | 123° |
| 2026-05-08 22:04 | 15.29910 | -64.55623 | 36964 ft | 463 kts | 123° |
| 2026-05-08 22:04 | 15.26684 | -64.51191 | 36968 ft | 463 kts | 123° |
| 2026-05-08 22:05 | 15.22821 | -64.45888 | 36964 ft | 463 kts | 123° |
| 2026-05-08 22:05 | 15.18925 | -64.40543 | 36970 ft | 463 kts | 123° |
| 2026-05-08 22:06 | 15.15062 | -64.35244 | 36967 ft | 463 kts | 123° |
| 2026-05-08 22:06 | 15.11192 | -64.29941 | 36965 ft | 463 kts | 124° |
| 2026-05-08 22:07 | 15.07297 | -64.24607 | 36963 ft | 463 kts | 124° |
| 2026-05-08 22:07 | 15.03428 | -64.19312 | 36967 ft | 463 kts | 124° |
| 2026-05-08 22:08 | 14.99106 | -64.14352 | 36948 ft | 468 kts | 143° |
| 2026-05-08 22:08 | 14.93599 | -64.10746 | 36972 ft | 473 kts | 146° |
| 2026-05-08 22:09 | 14.88014 | -64.07200 | 36963 ft | 473 kts | 146° |
| 2026-05-08 22:09 | 14.82361 | -64.03680 | 36966 ft | 473 kts | 147° |
| 2026-05-08 22:10 | 14.76736 | -64.00192 | 36961 ft | 472 kts | 147° |
| 2026-05-08 22:10 | 14.71120 | -63.96713 | 36962 ft | 472 kts | 147° |
| 2026-05-08 22:11 | 14.65504 | -63.93235 | 36961 ft | 472 kts | 147° |
| 2026-05-08 22:11 | 14.59851 | -63.89737 | 36962 ft | 472 kts | 147° |
| 2026-05-08 22:12 | 14.54237 | -63.86265 | 36959 ft | 471 kts | 147° |
| 2026-05-08 22:12 | 14.48596 | -63.82779 | 36958 ft | 471 kts | 147° |
| 2026-05-08 22:13 | 14.42997 | -63.79320 | 36954 ft | 471 kts | 147° |
| 2026-05-08 22:13 | 14.37383 | -63.75855 | 36957 ft | 471 kts | 147° |
| 2026-05-08 22:14 | 14.31745 | -63.72375 | 36954 ft | 471 kts | 147° |
| 2026-05-08 22:14 | 14.26140 | -63.68920 | 36958 ft | 471 kts | 148° |
| 2026-05-08 22:15 | 14.20534 | -63.65465 | 36955 ft | 471 kts | 148° |
| 2026-05-08 22:15 | 14.14912 | -63.62004 | 36957 ft | 471 kts | 148° |
| 2026-05-08 22:16 | 14.09291 | -63.58546 | 36957 ft | 470 kts | 148° |
| 2026-05-08 22:16 | 14.03685 | -63.55101 | 36953 ft | 470 kts | 148° |
| 2026-05-08 22:17 | 13.98049 | -63.51638 | 36949 ft | 470 kts | 148° |
| 2026-05-08 22:17 | 13.92452 | -63.48202 | 36954 ft | 470 kts | 148° |
| 2026-05-08 22:18 | 13.86897 | -63.44792 | 36954 ft | 469 kts | 148° |
| 2026-05-08 22:18 | 13.81309 | -63.41366 | 36954 ft | 469 kts | 149° |
| 2026-05-08 22:19 | 13.75684 | -63.37918 | 36949 ft | 468 kts | 149° |
| 2026-05-08 22:19 | 13.70094 | -63.34494 | 36951 ft | 468 kts | 149° |
| 2026-05-08 22:20 | 13.64527 | -63.31086 | 36951 ft | 468 kts | 149° |
| 2026-05-08 22:20 | 13.58951 | -63.27674 | 36948 ft | 468 kts | 150° |
| 2026-05-08 22:21 | 13.53350 | -63.24248 | 36946 ft | 467 kts | 150° |
| 2026-05-08 22:21 | 13.47793 | -63.20852 | 36946 ft | 467 kts | 150° |
| 2026-05-08 22:22 | 13.42203 | -63.17437 | 36945 ft | 466 kts | 150° |
| 2026-05-08 22:22 | 13.36629 | -63.14033 | 36945 ft | 465 kts | 151° |
| 2026-05-08 22:23 | 13.31092 | -63.10654 | 36945 ft | 464 kts | 151° |
| 2026-05-08 22:23 | 13.25526 | -63.07260 | 36944 ft | 464 kts | 151° |
| 2026-05-08 22:24 | 13.19971 | -63.03872 | 36942 ft | 463 kts | 151° |
| 2026-05-08 22:24 | 13.14441 | -63.00501 | 36944 ft | 463 kts | 152° |
| 2026-05-08 22:25 | 13.08930 | -62.97144 | 36943 ft | 462 kts | 152° |
| 2026-05-08 22:25 | 13.03390 | -62.93772 | 36943 ft | 462 kts | 152° |
| 2026-05-08 22:26 | 12.97900 | -62.90430 | 36943 ft | 461 kts | 152° |
| 2026-05-08 22:26 | 12.92365 | -62.87064 | 36941 ft | 461 kts | 152° |
| 2026-05-08 22:27 | 12.86880 | -62.83729 | 36941 ft | 461 kts | 152° |
| 2026-05-08 22:27 | 12.81348 | -62.80368 | 36943 ft | 461 kts | 153° |
| 2026-05-08 22:28 | 12.75848 | -62.77028 | 36942 ft | 460 kts | 153° |
| 2026-05-08 22:28 | 12.70355 | -62.73694 | 36942 ft | 460 kts | 153° |
| 2026-05-08 22:29 | 12.64834 | -62.70344 | 36940 ft | 460 kts | 153° |
| 2026-05-08 22:29 | 12.59313 | -62.66996 | 36940 ft | 460 kts | 153° |
| 2026-05-08 22:30 | 12.53841 | -62.63680 | 36935 ft | 460 kts | 153° |
| 2026-05-08 22:30 | 12.48345 | -62.60350 | 36779 ft | 450 kts | 153° |
| 2026-05-08 22:30 | 12.45655 | -62.58722 | 36219 ft | 448 kts | 153° |
| 2026-05-08 22:31 | 12.43001 | -62.57115 | 35650 ft | 447 kts | 153° |
| 2026-05-08 22:31 | 12.40329 | -62.55498 | 35140 ft | 445 kts | 153° |
| 2026-05-08 22:31 | 12.37669 | -62.53888 | 34649 ft | 443 kts | 153° |
| 2026-05-08 22:31 | 12.35013 | -62.52281 | 34153 ft | 441 kts | 153° |
| 2026-05-08 22:32 | 12.32378 | -62.50688 | 33604 ft | 440 kts | 153° |
| 2026-05-08 22:32 | 12.29778 | -62.49115 | 33066 ft | 438 kts | 152° |
| 2026-05-08 22:32 | 12.27165 | -62.47536 | 32574 ft | 435 kts | 153° |
| 2026-05-08 22:32 | 12.24537 | -62.45948 | 32089 ft | 432 kts | 153° |
| 2026-05-08 22:33 | 12.21987 | -62.44407 | 31616 ft | 429 kts | 153° |
| 2026-05-08 22:33 | 12.19423 | -62.42858 | 31142 ft | 426 kts | 152° |
| 2026-05-08 22:33 | 12.16887 | -62.41327 | 30676 ft | 419 kts | 153° |
| 2026-05-08 22:33 | 12.14416 | -62.39834 | 30228 ft | 413 kts | 153° |
| 2026-05-08 22:34 | 12.11962 | -62.38353 | 29739 ft | 407 kts | 153° |
| 2026-05-08 22:34 | 12.09533 | -62.36887 | 29254 ft | 400 kts | 153° |
| 2026-05-08 22:34 | 12.07151 | -62.35449 | 28829 ft | 393 kts | 153° |
| 2026-05-08 22:34 | 12.04808 | -62.34036 | 28424 ft | 389 kts | 153° |
| 2026-05-08 22:35 | 12.02506 | -62.32647 | 28026 ft | 387 kts | 153° |
| 2026-05-08 22:35 | 12.00194 | -62.31252 | 27616 ft | 384 kts | 153° |
| 2026-05-08 22:35 | 11.97892 | -62.29865 | 27214 ft | 382 kts | 153° |
| 2026-05-08 22:35 | 11.95601 | -62.28484 | 26830 ft | 380 kts | 153° |
| 2026-05-08 22:36 | 11.93328 | -62.27113 | 26438 ft | 378 kts | 152° |
| 2026-05-08 22:36 | 11.91092 | -62.25766 | 26054 ft | 376 kts | 152° |
| 2026-05-08 22:36 | 11.88838 | -62.24408 | 25673 ft | 375 kts | 152° |
| 2026-05-08 22:36 | 11.86585 | -62.23051 | 25292 ft | 373 kts | 152° |
| 2026-05-08 22:37 | 11.84372 | -62.21718 | 24917 ft | 372 kts | 152° |
| 2026-05-08 22:37 | 11.82147 | -62.20378 | 24546 ft | 371 kts | 152° |
| 2026-05-08 22:37 | 11.79899 | -62.19079 | 24133 ft | 369 kts | 158° |
| 2026-05-08 22:37 | 11.77580 | -62.18023 | 23727 ft | 369 kts | 158° |
| 2026-05-08 22:38 | 11.75251 | -62.16921 | 23373 ft | 367 kts | 157° |
| 2026-05-08 22:38 | 11.72941 | -62.15818 | 22963 ft | 365 kts | 157° |
| 2026-05-08 22:38 | 11.70642 | -62.14713 | 22588 ft | 362 kts | 157° |
| 2026-05-08 22:38 | 11.68368 | -62.13619 | 22222 ft | 360 kts | 157° |
| 2026-05-08 22:39 | 11.66135 | -62.12545 | 21868 ft | 357 kts | 157° |
| 2026-05-08 22:39 | 11.63894 | -62.11468 | 21513 ft | 354 kts | 157° |
| 2026-05-08 22:39 | 11.61673 | -62.10400 | 21154 ft | 352 kts | 157° |
| 2026-05-08 22:39 | 11.59458 | -62.09335 | 20799 ft | 350 kts | 157° |
| 2026-05-08 22:40 | 11.57262 | -62.08279 | 20453 ft | 348 kts | 157° |
| 2026-05-08 22:40 | 11.55102 | -62.07241 | 20110 ft | 346 kts | 157° |
| 2026-05-08 22:40 | 11.52931 | -62.06198 | 19762 ft | 344 kts | 157° |
| 2026-05-08 22:40 | 11.50770 | -62.05160 | 19419 ft | 342 kts | 157° |
| 2026-05-08 22:41 | 11.48614 | -62.04124 | 19074 ft | 341 kts | 157° |
| 2026-05-08 22:41 | 11.46475 | -62.03097 | 18732 ft | 340 kts | 157° |
| 2026-05-08 22:41 | 11.44339 | -62.02071 | 18386 ft | 339 kts | 157° |
| 2026-05-08 22:41 | 11.42205 | -62.01046 | 18027 ft | 338 kts | 156° |
| 2026-05-08 22:42 | 11.40103 | -62.00038 | 17651 ft | 336 kts | 156° |
| 2026-05-08 22:42 | 11.37988 | -61.99023 | 17303 ft | 334 kts | 156° |
| 2026-05-08 22:42 | 11.35884 | -61.98013 | 16957 ft | 332 kts | 156° |
| 2026-05-08 22:42 | 11.33794 | -61.97010 | 16626 ft | 330 kts | 155° |
| 2026-05-08 22:43 | 11.31751 | -61.96030 | 16291 ft | 328 kts | 155° |
| 2026-05-08 22:43 | 11.29686 | -61.95040 | 15963 ft | 326 kts | 155° |
| 2026-05-08 22:43 | 11.27628 | -61.94053 | 15633 ft | 325 kts | 154° |
| 2026-05-08 22:43 | 11.25609 | -61.93085 | 15301 ft | 323 kts | 154° |
| 2026-05-08 22:44 | 11.23572 | -61.92108 | 14975 ft | 321 kts | 153° |
| 2026-05-08 22:44 | 11.21546 | -61.91137 | 14648 ft | 320 kts | 153° |
| 2026-05-08 22:44 | 11.19553 | -61.90181 | 14325 ft | 319 kts | 153° |
| 2026-05-08 22:44 | 11.17552 | -61.89223 | 14003 ft | 318 kts | 153° |
| 2026-05-08 22:45 | 11.15551 | -61.88263 | 13673 ft | 317 kts | 153° |
| 2026-05-08 22:45 | 11.13552 | -61.87305 | 13305 ft | 316 kts | 153° |
| 2026-05-08 22:45 | 11.11595 | -61.86367 | 12975 ft | 314 kts | 153° |
| 2026-05-08 22:45 | 11.09616 | -61.85420 | 12645 ft | 312 kts | 153° |
| 2026-05-08 22:46 | 11.07649 | -61.84478 | 12321 ft | 310 kts | 153° |
| 2026-05-08 22:46 | 11.05728 | -61.83559 | 12008 ft | 308 kts | 153° |
| 2026-05-08 22:46 | 11.03788 | -61.82631 | 11695 ft | 306 kts | 153° |
| 2026-05-08 22:46 | 11.01867 | -61.81712 | 11376 ft | 304 kts | 153° |
| 2026-05-08 22:47 | 10.99954 | -61.80796 | 11064 ft | 302 kts | 153° |
| 2026-05-08 22:47 | 10.98054 | -61.79884 | 10750 ft | 300 kts | 153° |
| 2026-05-08 22:47 | 10.96190 | -61.78990 | 10448 ft | 299 kts | 153° |
| 2026-05-08 22:47 | 10.94311 | -61.78091 | 10141 ft | 298 kts | 153° |
| 2026-05-08 22:48 | 10.92445 | -61.77198 | 9934 ft | 292 kts | 153° |
| 2026-05-08 22:48 | 10.90609 | -61.76320 | 9614 ft | 291 kts | 153° |
| 2026-05-08 22:48 | 10.88802 | -61.75455 | 9289 ft | 289 kts | 153° |
| 2026-05-08 22:48 | 10.86978 | -61.74583 | 8978 ft | 288 kts | 153° |
| 2026-05-08 22:49 | 10.85168 | -61.73718 | 8679 ft | 286 kts | 153° |
| 2026-05-08 22:49 | 10.81617 | -61.72021 | 8085 ft | 281 kts | 153° |
| 2026-05-08 22:49 | 10.79845 | -61.71175 | 7778 ft | 279 kts | 153° |
| 2026-05-08 22:50 | 10.78092 | -61.70337 | 7490 ft | 278 kts | 153° |
| 2026-05-08 22:50 | 10.76350 | -61.69504 | 7199 ft | 276 kts | 153° |
| 2026-05-08 22:50 | 10.74612 | -61.68675 | 6905 ft | 276 kts | 153° |
| 2026-05-08 22:50 | 10.72873 | -61.67844 | 6611 ft | 274 kts | 153° |
| 2026-05-08 22:51 | 10.71163 | -61.67027 | 6321 ft | 274 kts | 153° |
| 2026-05-08 22:51 | 10.69437 | -61.66200 | 6023 ft | 274 kts | 152° |
| 2026-05-08 22:51 | 10.67720 | -61.65381 | 5760 ft | 269 kts | 153° |
| 2026-05-08 22:51 | 10.66062 | -61.64590 | 5647 ft | 258 kts | 153° |
| 2026-05-08 22:52 | 10.64467 | -61.63831 | 5497 ft | 246 kts | 153° |
| 2026-05-08 22:52 | 10.62972 | -61.63117 | 5388 ft | 234 kts | 152° |
| 2026-05-08 22:52 | 10.61538 | -61.62433 | 5288 ft | 223 kts | 152° |
| 2026-05-08 22:52 | 10.60296 | -61.61561 | 5075 ft | 213 kts | 127° |
| 2026-05-08 22:53 | 10.59673 | -61.60255 | 4833 ft | 202 kts | 102° |
| 2026-05-08 22:53 | 10.59501 | -61.58853 | 4555 ft | 198 kts | 91° |
| 2026-05-08 22:53 | 10.59474 | -61.57473 | 4240 ft | 192 kts | 90° |
| 2026-05-08 22:53 | 10.59472 | -61.56157 | 3968 ft | 183 kts | 89° |
| 2026-05-08 22:54 | 10.59474 | -61.54890 | 3690 ft | 175 kts | 89° |
| 2026-05-08 22:54 | 10.59476 | -61.53661 | 3450 ft | 173 kts | 89° |
| 2026-05-08 22:54 | 10.59480 | -61.52442 | 3213 ft | 172 kts | 89° |
| 2026-05-08 22:54 | 10.59484 | -61.51238 | 2987 ft | 171 kts | 89° |
| 2026-05-08 22:55 | 10.59486 | -61.50036 | 2751 ft | 169 kts | 89° |
| 2026-05-08 22:55 | 10.59491 | -61.48846 | 2532 ft | 168 kts | 88° |
| 2026-05-08 22:55 | 10.59495 | -61.47699 | 2324 ft | 161 kts | 88° |
| 2026-05-08 22:55 | 10.59499 | -61.46570 | 2109 ft | 158 kts | 89° |
| 2026-05-08 22:56 | 10.59502 | -61.45460 | 1904 ft | 158 kts | 88° |
| 2026-05-08 22:56 | 10.59505 | -61.44351 | 1701 ft | 156 kts | 88° |
| 2026-05-08 22:56 | 10.59508 | -61.43244 | 1499 ft | 153 kts | 87° |
| 2026-05-08 22:56 | 10.59513 | -61.42194 | 1327 ft | 148 kts | 87° |
| 2026-05-08 22:57 | 10.59514 | -61.41154 | 1119 ft | 146 kts | 87° |
| 2026-05-08 22:57 | 10.59519 | -61.40118 | 961 ft | 146 kts | 89° |
| 2026-05-08 22:57 | 10.59522 | -61.39089 | 762 ft | 145 kts | 89° |
| 2026-05-08 22:57 | 10.59523 | -61.38109 | 601 ft | 137 kts | 88° |
| 2026-05-08 22:58 | 10.59539 | -61.37085 | 429 ft | 144 kts | 90° |
| 2026-05-08 22:58 | 10.59538 | -61.36105 | 224 ft | 138 kts | 91° |
| 2026-05-08 22:58 | 10.59536 | -61.35104 | 54 ft | 143 kts | 91° |
| 2026-05-08 22:58 | 10.59540 | -61.34160 | 19 ft | 113 kts | 94° |
| 2026-05-08 22:59 | 10.59538 | -61.33579 | 18 ft | 51 kts | 89° |
| 2026-05-08 22:59 | 10.59538 | -61.33235 | 20 ft | 49 kts | 88° |
| 2026-05-08 22:59 | 10.59539 | -61.33005 | 19 ft | 10 kts | 90° |
| 2026-05-08 22:59 | 10.59582 | -61.32957 | 19 ft | 9 kts | 8° |
| 2026-05-08 23:00 | 10.59639 | -61.32957 | 19 ft | 9 kts | 360° |
| 2026-05-08 23:00 | 10.59698 | -61.32979 | 21 ft | 10 kts | 310° |
| 2026-05-08 23:00 | 10.59712 | -61.33047 | 19 ft | 9 kts | 270° |
| 2026-05-08 23:00 | 10.59712 | -61.33121 | 19 ft | 12 kts | 270° |
| 2026-05-08 23:01 | 10.59711 | -61.33213 | 19 ft | 14 kts | 269° |
| 2026-05-08 23:01 | 10.59710 | -61.33320 | 19 ft | 16 kts | 270° |
| 2026-05-08 23:01 | 10.59710 | -61.33442 | 19 ft | 18 kts | 270° |
| 2026-05-08 23:01 | 10.59709 | -61.33579 | 19 ft | 21 kts | 269° |
| 2026-05-08 23:02 | 10.59709 | -61.33681 | 19 ft | 11 kts | 270° |
| 2026-05-08 23:02 | 10.59709 | -61.33770 | 19 ft | 14 kts | 270° |
| 2026-05-08 23:02 | 10.59709 | -61.33877 | 19 ft | 16 kts | 270° |
| 2026-05-08 23:02 | 10.59709 | -61.33999 | 19 ft | 18 kts | 269° |
| 2026-05-08 23:03 | 10.59709 | -61.34116 | 19 ft | 10 kts | 270° |
| 2026-05-08 23:03 | 10.59718 | -61.34173 | 19 ft | 8 kts | 314° |
| 2026-05-08 23:03 | 10.59777 | -61.34184 | 19 ft | 8 kts | 360° |
| 2026-05-08 23:03 | 10.59843 | -61.34184 | 19 ft | 11 kts | 360° |
| 2026-05-08 23:04 | 10.59928 | -61.34184 | 19 ft | 13 kts | 0° |
| 2026-05-08 23:04 | 10.60022 | -61.34184 | 19 ft | 7 kts | 360° |
| 2026-05-08 23:04 | 10.60068 | -61.34179 | 19 ft | 5 kts | 30° |
| 2026-05-08 23:04 | 10.60074 | -61.34147 | 19 ft | 6 kts | 104° |
| 2026-05-08 23:05 | 10.60059 | -61.34124 | 20 ft | 3 kts | 136° |
| 2026-05-08 23:05 | 10.60037 | -61.34102 | 19 ft | 3 kts | 136° |
| 2026-05-08 23:05 | 10.60031 | -61.34097 | 19 ft | 0 kts | 136° |